Time,TemperatureF,DewpointF,PressureIn,WindDirection,WindDirectionDegrees,WindSpeedMPH,WindSpeedGustMPH,Humidity,HourlyPrecipIn,Conditions,Clouds,dailyrainin,SolarRadiationWatts/m^2,SoftwareType,DateUTC
2013-10-27 00:06:00,44.8,39.0,29.87,SSE,154,0.0,-999.0,79,-99.99,,,0.12,0,weatherlink.com 1.10,2013-10-27 04:06:00,
2013-10-27 00:21:00,44.3,39.0,29.87,SSE,154,0.0,-999.0,81,-99.99,,,0.12,0,weatherlink.com 1.10,2013-10-27 04:21:00,
2013-10-27 00:36:00,44.1,39.0,29.86,SSE,154,0.0,-999.0,82,-99.99,,,0.12,0,weatherlink.com 1.10,2013-10-27 04:36:00,
2013-10-27 00:51:00,44.2,39.0,29.85,SSE,154,0.0,-999.0,82,-99.99,,,0.12,0,weatherlink.com 1.10,2013-10-27 04:51:00,
2013-10-27 01:06:00,44.2,39.0,29.84,SSE,154,0.0,-999.0,83,-99.99,,,0.12,0,weatherlink.com 1.10,2013-10-27 05:06:00,
2013-10-27 01:21:00,44.7,40.0,29.85,NE,43,0.0,-999.0,83,-99.99,,,0.12,0,weatherlink.com 1.10,2013-10-27 05:21:00,
2013-10-27 01:36:00,45.5,41.0,29.84,ENE,76,0.0,-999.0,83,-99.99,,,0.12,0,weatherlink.com 1.10,2013-10-27 05:36:00,
2013-10-27 01:51:00,46.2,41.0,29.85,ENE,76,0.0,-999.0,81,-99.99,,,0.12,0,weatherlink.com 1.10,2013-10-27 05:51:00,
2013-10-27 02:06:00,46.6,41.0,29.85,ENE,76,0.0,-999.0,80,-99.99,,,0.12,0,weatherlink.com 1.10,2013-10-27 06:06:00,
2013-10-27 02:21:00,46.6,41.0,29.84,ENE,76,0.0,-999.0,81,-99.99,,,0.12,0,weatherlink.com 1.10,2013-10-27 06:21:00,
2013-10-27 02:36:00,46.3,41.0,29.84,ENE,76,0.0,-999.0,81,-99.99,,,0.12,0,weatherlink.com 1.10,2013-10-27 06:36:00,
2013-10-27 02:51:00,46.1,41.0,29.83,ENE,76,0.0,-999.0,81,-99.99,,,0.12,0,weatherlink.com 1.10,2013-10-27 06:51:00,
2013-10-27 03:06:00,46.0,41.0,29.82,ENE,76,0.0,-999.0,81,-99.99,,,0.12,0,weatherlink.com 1.10,2013-10-27 07:06:00,
2013-10-27 03:21:00,45.7,41.0,29.83,ENE,76,0.0,-999.0,82,-99.99,,,0.12,0,weatherlink.com 1.10,2013-10-27 07:21:00,
2013-10-27 03:36:00,45.2,40.0,29.82,ENE,76,0.0,-999.0,82,-99.99,,,0.12,0,weatherlink.com 1.10,2013-10-27 07:36:00,
2013-10-27 03:51:00,44.8,39.0,29.82,ENE,76,0.0,-999.0,81,-99.99,,,0.12,0,weatherlink.com 1.10,2013-10-27 07:51:00,
2013-10-27 04:06:00,44.6,39.0,29.81,ENE,76,0.0,-999.0,81,-99.99,,,0.12,0,weatherlink.com 1.10,2013-10-27 08:06:00,
2013-10-27 04:21:00,44.6,39.0,29.81,ENE,76,0.0,-999.0,80,-99.99,,,0.00,0,weatherlink.com 1.10,2013-10-27 08:21:00,
2013-10-27 04:36:00,44.3,38.0,29.81,NNW,342,0.0,-999.0,79,-99.99,,,0.00,0,weatherlink.com 1.10,2013-10-27 08:36:00,
2013-10-27 04:51:00,44.5,38.0,29.80,NNW,347,0.0,-999.0,78,-99.99,,,0.00,0,weatherlink.com 1.10,2013-10-27 08:51:00,
2013-10-27 05:06:00,45.1,38.0,29.81,NNW,348,4.0,-999.0,75,-99.99,,,0.00,0,weatherlink.com 1.10,2013-10-27 09:06:00,
2013-10-27 05:21:00,45.9,38.0,29.82,SW,236,1.0,-999.0,74,-99.99,,,0.00,0,weatherlink.com 1.10,2013-10-27 09:21:00,
2013-10-27 05:36:00,46.3,38.0,29.82,WNW,301,2.0,-999.0,74,-99.99,,,0.00,0,weatherlink.com 1.10,2013-10-27 09:36:00,
2013-10-27 05:51:00,46.0,39.0,29.83,West,264,1.0,-999.0,77,-99.99,,,0.00,0,weatherlink.com 1.10,2013-10-27 09:51:00,
2013-10-27 06:06:00,45.0,40.0,29.83,NNW,338,0.0,-999.0,81,-99.99,,,0.00,0,weatherlink.com 1.10,2013-10-27 10:06:00,
2013-10-27 06:21:00,44.5,40.0,29.82,West,274,0.0,-999.0,84,-99.99,,,0.00,0,weatherlink.com 1.10,2013-10-27 10:21:00,
2013-10-27 06:36:00,44.1,40.0,29.82,West,274,0.0,-999.0,85,-99.99,,,0.00,0,weatherlink.com 1.10,2013-10-27 10:36:00,
2013-10-27 06:51:00,43.9,40.0,29.83,West,274,0.0,-999.0,86,-99.99,,,0.00,0,weatherlink.com 1.10,2013-10-27 10:51:00,
2013-10-27 07:06:00,43.7,40.0,29.83,West,273,0.0,-999.0,87,-99.99,,,0.00,0,weatherlink.com 1.10,2013-10-27 11:06:00,
2013-10-27 07:21:00,43.6,40.0,29.83,West,273,0.0,-999.0,88,-99.99,,,0.00,0,weatherlink.com 1.10,2013-10-27 11:21:00,
2013-10-27 07:36:00,43.4,40.0,29.84,WSW,249,0.0,-999.0,89,-99.99,,,0.00,7,weatherlink.com 1.10,2013-10-27 11:36:00,
2013-10-27 07:51:00,43.2,41.0,29.84,WSW,249,0.0,-999.0,90,-99.99,,,0.00,16,weatherlink.com 1.10,2013-10-27 11:51:00,
2013-10-27 08:06:00,43.0,40.0,29.85,WSW,249,0.0,-999.0,90,-99.99,,,0.00,25,weatherlink.com 1.10,2013-10-27 12:06:00,
2013-10-27 08:21:00,42.9,41.0,29.85,WSW,248,0.0,-999.0,91,-99.99,,,0.00,53,weatherlink.com 1.10,2013-10-27 12:21:00,
2013-10-27 08:36:00,43.0,41.0,29.85,WSW,249,0.0,-999.0,91,-99.99,,,0.00,35,weatherlink.com 1.10,2013-10-27 12:36:00,
2013-10-27 08:51:00,43.7,42.0,29.85,WSW,249,1.0,-999.0,92,-99.99,,,0.00,98,weatherlink.com 1.10,2013-10-27 12:51:00,
2013-10-27 09:07:00,44.5,42.0,29.85,WNW,295,0.0,-999.0,91,-99.99,,,0.00,40,weatherlink.com 1.10,2013-10-27 13:07:00,
2013-10-27 09:22:00,45.9,42.0,29.85,NNW,339,1.0,-999.0,86,-99.99,,,0.00,105,weatherlink.com 1.10,2013-10-27 13:22:00,
2013-10-27 09:37:00,47.0,42.0,29.85,SW,233,0.0,-999.0,82,-99.99,,,0.00,58,weatherlink.com 1.10,2013-10-27 13:37:00,
2013-10-27 09:52:00,47.9,41.0,29.85,WNW,292,5.0,-999.0,78,-99.99,,,0.00,47,weatherlink.com 1.10,2013-10-27 13:52:00,
2013-10-27 10:07:00,48.8,40.0,29.85,North,360,2.0,-999.0,73,-99.99,,,0.00,373,weatherlink.com 1.10,2013-10-27 14:07:00,
2013-10-27 10:22:00,49.7,40.0,29.85,NW,308,0.0,-999.0,69,-99.99,,,0.00,410,weatherlink.com 1.10,2013-10-27 14:22:00,
2013-10-27 10:37:00,50.7,40.0,29.85,North,355,7.0,-999.0,66,-99.99,,,0.00,443,weatherlink.com 1.10,2013-10-27 14:37:00,
2013-10-27 10:52:00,51.2,39.0,29.85,NNW,340,5.0,-999.0,64,-99.99,,,0.00,464,weatherlink.com 1.10,2013-10-27 14:52:00,
2013-10-27 11:07:00,51.7,39.0,29.85,NNW,345,1.0,-999.0,62,-99.99,,,0.00,485,weatherlink.com 1.10,2013-10-27 15:07:00,
2013-10-27 11:22:00,52.4,39.0,29.85,NW,306,6.0,-999.0,61,-99.99,,,0.00,503,weatherlink.com 1.10,2013-10-27 15:22:00,
2013-10-27 11:37:00,53.1,39.0,29.85,WSW,243,2.0,-999.0,60,-99.99,,,0.00,524,weatherlink.com 1.10,2013-10-27 15:37:00,
2013-10-27 11:52:00,53.5,39.0,29.85,WNW,293,5.0,-999.0,59,-99.99,,,0.00,533,weatherlink.com 1.10,2013-10-27 15:52:00,
2013-10-27 12:07:00,53.7,39.0,29.85,WNW,299,5.0,-999.0,58,-99.99,,,0.00,548,weatherlink.com 1.10,2013-10-27 16:07:00,
2013-10-27 12:22:00,54.6,39.0,29.85,SSW,194,0.0,-999.0,57,-99.99,,,0.00,621,weatherlink.com 1.10,2013-10-27 16:22:00,
2013-10-27 12:37:00,55.2,39.0,29.84,NNW,340,2.0,-999.0,55,-99.99,,,0.00,418,weatherlink.com 1.10,2013-10-27 16:37:00,
2013-10-27 12:52:00,55.3,39.0,29.84,NW,325,2.0,-999.0,54,-99.99,,,0.00,645,weatherlink.com 1.10,2013-10-27 16:52:00,
2013-10-27 13:07:00,54.3,38.0,29.83,SW,235,3.0,-999.0,55,-99.99,,,0.00,613,weatherlink.com 1.10,2013-10-27 17:07:00,
2013-10-27 13:22:00,54.2,38.0,29.83,NW,317,0.0,-999.0,54,-99.99,,,0.00,568,weatherlink.com 1.10,2013-10-27 17:22:00,
2013-10-27 13:37:00,54.8,38.0,29.83,NNW,333,4.0,-999.0,53,-99.99,,,0.00,570,weatherlink.com 1.10,2013-10-27 17:37:00,
2013-10-27 13:52:00,54.4,37.0,29.83,NW,324,8.0,-999.0,53,-99.99,,,0.00,91,weatherlink.com 1.10,2013-10-27 17:52:00,
2013-10-27 14:07:00,54.1,37.0,29.83,NNW,329,0.0,-999.0,53,-99.99,,,0.00,506,weatherlink.com 1.10,2013-10-27 18:07:00,
2013-10-27 14:22:00,54.5,36.0,29.83,NW,324,2.0,-999.0,51,-99.99,,,0.00,114,weatherlink.com 1.10,2013-10-27 18:22:00,
2013-10-27 14:37:00,54.1,37.0,29.83,West,275,0.0,-999.0,52,-99.99,,,0.00,160,weatherlink.com 1.10,2013-10-27 18:37:00,
2013-10-27 14:52:00,54.2,37.0,29.83,West,263,5.0,-999.0,52,-99.99,,,0.00,153,weatherlink.com 1.10,2013-10-27 18:52:00,
2013-10-27 15:07:00,54.2,36.0,29.84,NW,320,4.0,-999.0,51,-99.99,,,0.00,148,weatherlink.com 1.10,2013-10-27 19:07:00,
2013-10-27 15:22:00,54.3,36.0,29.85,North,349,7.0,-999.0,51,-99.99,,,0.00,91,weatherlink.com 1.10,2013-10-27 19:22:00,
2013-10-27 15:37:00,54.1,35.0,29.86,WNW,295,2.0,-999.0,49,-99.99,,,0.00,54,weatherlink.com 1.10,2013-10-27 19:37:00,
2013-10-27 15:52:00,53.7,35.0,29.86,NNW,346,0.0,-999.0,49,-99.99,,,0.00,100,weatherlink.com 1.10,2013-10-27 19:52:00,
2013-10-27 16:07:00,53.8,34.0,29.86,WNW,296,2.0,-999.0,48,-99.99,,,0.00,111,weatherlink.com 1.10,2013-10-27 20:07:00,
2013-10-27 16:22:00,54.2,35.0,29.86,NNW,340,6.0,-999.0,49,-99.99,,,0.00,98,weatherlink.com 1.10,2013-10-27 20:22:00,
2013-10-27 16:37:00,54.0,34.0,29.86,NW,321,0.0,-999.0,47,-99.99,,,0.00,79,weatherlink.com 1.10,2013-10-27 20:37:00,
2013-10-27 16:52:00,53.5,34.0,29.87,NNW,348,2.0,-999.0,47,-99.99,,,0.00,47,weatherlink.com 1.10,2013-10-27 20:52:00,
2013-10-27 17:07:00,53.2,33.0,29.88,NNW,327,4.0,-999.0,46,-99.99,,,0.00,28,weatherlink.com 1.10,2013-10-27 21:07:00,
2013-10-27 17:22:00,52.8,32.0,29.89,NW,311,5.0,-999.0,46,-99.99,,,0.00,11,weatherlink.com 1.10,2013-10-27 21:22:00,
2013-10-27 17:37:00,52.3,32.0,29.90,NW,323,0.0,-999.0,47,-99.99,,,0.00,0,weatherlink.com 1.10,2013-10-27 21:37:00,
2013-10-27 17:53:00,51.8,33.0,29.90,NNW,327,0.0,-999.0,49,-99.99,,,0.00,0,weatherlink.com 1.10,2013-10-27 21:53:00,
2013-10-27 18:08:00,51.2,33.0,29.91,NNW,327,0.0,-999.0,51,-99.99,,,0.00,0,weatherlink.com 1.10,2013-10-27 22:08:00,
2013-10-27 18:23:00,50.3,33.0,29.91,North,5,0.0,-999.0,52,-99.99,,,0.00,0,weatherlink.com 1.10,2013-10-27 22:23:00,
2013-10-27 18:38:00,49.8,33.0,29.93,WNW,299,0.0,-999.0,52,-99.99,,,0.00,0,weatherlink.com 1.10,2013-10-27 22:38:00,
2013-10-27 18:53:00,49.6,32.0,29.94,North,351,0.0,-999.0,52,-99.99,,,0.00,0,weatherlink.com 1.10,2013-10-27 22:53:00,
2013-10-27 19:08:00,49.2,32.0,29.95,NNW,347,1.0,-999.0,52,-99.99,,,0.00,0,weatherlink.com 1.10,2013-10-27 23:08:00,
2013-10-27 19:23:00,49.0,32.0,29.96,NNW,348,0.0,-999.0,52,-99.99,,,0.00,0,weatherlink.com 1.10,2013-10-27 23:23:00,
2013-10-27 19:38:00,48.7,32.0,29.96,NNW,329,1.0,-999.0,53,-99.99,,,0.00,0,weatherlink.com 1.10,2013-10-27 23:38:00,
2013-10-27 19:53:00,48.3,32.0,29.97,WNW,300,0.0,-999.0,53,-99.99,,,0.00,0,weatherlink.com 1.10,2013-10-27 23:53:00,
2013-10-27 20:08:00,48.1,32.0,29.97,NW,304,0.0,-999.0,54,-99.99,,,0.00,0,weatherlink.com 1.10,2013-10-28 00:08:00,
2013-10-27 20:23:00,47.7,32.0,29.97,North,355,0.0,-999.0,55,-99.99,,,0.00,0,weatherlink.com 1.10,2013-10-28 00:23:00,
2013-10-27 20:38:00,47.3,32.0,29.98,North,355,0.0,-999.0,55,-99.99,,,0.00,0,weatherlink.com 1.10,2013-10-28 00:38:00,
2013-10-27 20:53:00,46.7,32.0,29.99,North,355,0.0,-999.0,57,-99.99,,,0.00,0,weatherlink.com 1.10,2013-10-28 00:53:00,
2013-10-27 21:08:00,45.9,32.0,30.00,North,355,0.0,-999.0,58,-99.99,,,0.00,0,weatherlink.com 1.10,2013-10-28 01:08:00,
2013-10-27 21:23:00,45.1,32.0,30.00,North,351,0.0,-999.0,60,-99.99,,,0.00,0,weatherlink.com 1.10,2013-10-28 01:23:00,
2013-10-27 21:38:00,44.8,32.0,30.00,NNW,345,0.0,-999.0,61,-99.99,,,0.00,0,weatherlink.com 1.10,2013-10-28 01:38:00,
2013-10-27 21:53:00,45.0,32.0,30.01,West,268,0.0,-999.0,60,-99.99,,,0.00,0,weatherlink.com 1.10,2013-10-28 01:53:00,
2013-10-27 22:08:00,45.1,32.0,30.01,North,351,0.0,-999.0,60,-99.99,,,0.00,0,weatherlink.com 1.10,2013-10-28 02:08:00,
2013-10-27 22:23:00,45.0,32.0,30.02,North,351,0.0,-999.0,61,-99.99,,,0.00,0,weatherlink.com 1.10,2013-10-28 02:23:00,
2013-10-27 22:38:00,44.9,32.0,30.02,North,360,0.0,-999.0,61,-99.99,,,0.00,0,weatherlink.com 1.10,2013-10-28 02:38:00,
2013-10-27 22:53:00,44.7,32.0,30.03,WNW,284,0.0,-999.0,62,-99.99,,,0.00,0,weatherlink.com 1.10,2013-10-28 02:53:00,
2013-10-27 23:08:00,44.5,32.0,30.04,NW,324,0.0,-999.0,62,-99.99,,,0.00,0,weatherlink.com 1.10,2013-10-28 03:08:00,
2013-10-27 23:23:00,44.0,32.0,30.04,NW,324,0.0,-999.0,63,-99.99,,,0.00,0,weatherlink.com 1.10,2013-10-28 03:23:00,
2013-10-27 23:38:00,43.4,32.0,30.04,NW,324,0.0,-999.0,65,-99.99,,,0.00,0,weatherlink.com 1.10,2013-10-28 03:38:00,
2013-10-27 23:53:00,42.9,32.0,30.04,NW,324,0.0,-999.0,66,-99.99,,,0.00,0,weatherlink.com 1.10,2013-10-28 03:53:00,